Time;durP1;ratioP1;P1;durP2;ratioP2;P2;SDS_P1;SDS_P2;PMS_P1;PMS_P2;Temp;Humidity;BMP_temperature;BMP_pressure;BME280_temperature;BME280_humidity;BME280_pressure;Samples;Min_cycle;Max_cycle;Signal;HPM_P1;HPM_P2
2022/05/14 00:01:38;;;;;;;12.32;4.32;;;;;;;11.78;88.41;101962.56;4972561;28;20160;-56
2022/05/14 00:04:09;;;;;;;11.02;4.20;;;;;;;11.73;89.04;101959.34;4973182;28;20077;-54
2022/05/14 00:06:38;;;;;;;13.93;4.30;;;;;;;11.63;90.08;101961.59;4971211;28;20047;-56
2022/05/14 00:09:06;;;;;;;14.65;4.65;;;;;;;11.65;89.57;101963.22;4971648;28;20046;-55
2022/05/14 00:14:22;;;;;;;11.43;4.35;;;;;;;11.60;89.27;101946.81;4974977;28;20051;-55
2022/05/14 00:16:51;;;;;;;11.73;4.18;;;;;;;11.59;90.27;101952.13;4972827;28;20478;-55
2022/05/14 00:19:21;;;;;;;12.23;3.92;;;;;;;11.53;90.98;101958.56;4971035;28;20414;-56
2022/05/14 00:21:49;;;;;;;13.48;4.20;;;;;;;11.46;91.04;101952.78;4970940;28;20055;-55
2022/05/14 00:24:17;;;;;;;12.43;4.22;;;;;;;11.43;91.64;101950.31;4974572;28;20113;-57
2022/05/14 00:26:45;;;;;;;12.10;4.15;;;;;;;11.44;91.91;101956.44;4974312;28;20129;-54
2022/05/14 00:29:14;;;;;;;12.05;3.85;;;;;;;11.45;91.31;101956.34;4974948;28;20058;-56
2022/05/14 00:31:42;;;;;;;12.05;3.95;;;;;;;11.37;92.27;101953.28;4974712;28;20386;-55
2022/05/14 00:34:10;;;;;;;12.13;3.67;;;;;;;11.35;91.11;101949.84;4974651;28;20046;-59
2022/05/14 00:36:40;;;;;;;10.63;4.72;;;;;;;11.31;91.94;101950.94;4974617;28;20042;-55
2022/05/14 00:39:08;;;;;;;12.40;3.30;;;;;;;11.28;92.64;101951.09;4974497;28;20043;-55
2022/05/14 00:41:36;;;;;;;10.85;3.67;;;;;;;11.24;92.53;101950.38;4972631;28;20561;-54
2022/05/14 00:44:05;;;;;;;12.57;3.50;;;;;;;11.26;91.92;101950.31;4970932;28;20229;-56
2022/05/14 00:46:46;;;;;;;13.52;3.60;;;;;;;11.27;91.38;101952.84;4971202;28;20134;-55
2022/05/14 00:49:16;;;;;;;11.20;3.17;;;;;;;11.28;91.24;101956.34;4968758;28;20058;-55
2022/05/14 00:51:46;;;;;;;9.45;3.60;;;;;;;11.31;91.08;101946.50;4969905;28;20072;-55
2022/05/14 00:54:18;;;;;;;12.65;3.40;;;;;;;11.26;91.23;101950.31;4970444;28;20498;-60
2022/05/14 00:56:51;;;;;;;8.88;3.17;;;;;;;11.26;91.06;101952.94;4968456;28;20509;-60
2022/05/14 00:59:20;;;;;;;;;;;;;;;11.30;90.17;101947.47;4973631;28;20060;-60
2022/05/14 01:01:49;;;;;;;13.02;3.90;;;;;;;11.22;90.35;101949.63;4973979;28;19922;-60
2022/05/14 01:04:19;;;;;;;7.55;3.17;;;;;;;11.18;90.85;101944.56;4988880;28;20058;-60
2022/05/14 01:06:55;;;;;;;13.13;3.30;;;;;;;11.25;90.55;101949.47;4971898;28;20056;-60
2022/05/14 01:09:23;;;;;;;9.85;3.50;;;;;;;11.21;90.02;101947.03;4969611;28;20050;-60
2022/05/14 01:11:54;;;;;;;10.20;2.92;;;;;;;11.17;90.33;101951.63;4968654;28;20629;-60
2022/05/14 01:14:22;;;;;;;9.98;3.20;;;;;;;11.16;90.45;101942.84;4970247;28;20065;-61
2022/05/14 01:16:51;;;;;;;11.38;3.17;;;;;;;11.22;91.46;101949.63;4970651;28;20482;-60
2022/05/14 01:19:19;;;;;;;15.02;3.40;;;;;;;11.20;91.23;101943.56;4969738;28;20465;-60
2022/05/14 01:22:04;;;;;;;10.82;3.25;;;;;;;11.13;91.71;101950.91;4972737;28;20061;-60
2022/05/14 01:27:42;;;;;;;11.05;3.17;;;;;;;11.10;92.29;101947.59;4960198;28;20059;-60
2022/05/14 01:30:11;;;;;;;11.23;3.80;;;;;;;11.14;91.44;101952.63;4970548;28;20074;-60
2022/05/14 01:32:39;;;;;;;11.60;3.08;;;;;;;11.07;91.46;101959.13;4970295;28;20126;-59
2022/05/14 01:35:08;;;;;;;7.78;3.00;;;;;;;11.09;92.01;101959.06;4969503;28;20051;-60
2022/05/14 01:37:38;;;;;;;10.32;3.25;;;;;;;11.05;92.59;101953.09;4969683;28;20054;-60
2022/05/14 01:40:07;;;;;;;12.60;3.20;;;;;;;11.02;93.43;101950.59;4967908;28;20061;-60
2022/05/14 01:42:35;;;;;;;10.70;2.90;;;;;;;11.07;93.57;101961.78;4984728;28;20055;-60
2022/05/14 01:45:06;;;;;;;11.40;2.97;;;;;;;11.07;94.17;101956.50;4969671;28;20051;-60
2022/05/14 01:47:35;;;;;;;8.63;3.33;;;;;;;11.08;94.36;101955.56;4970454;28;20046;-60
2022/05/14 01:50:04;;;;;;;12.45;3.08;;;;;;;11.11;94.18;101962.44;4973415;28;20098;-59
2022/05/14 01:52:32;;;;;;;9.32;3.30;;;;;;;11.06;93.95;101960.06;4973398;28;20046;-60
2022/05/14 01:55:00;;;;;;;10.82;3.45;;;;;;;11.10;94.08;101961.63;4973367;28;20059;-60
2022/05/14 01:57:29;;;;;;;10.60;3.50;;;;;;;11.09;94.43;101959.91;4973373;28;20047;-60
2022/05/14 01:59:57;;;;;;;12.73;3.85;;;;;;;11.10;94.05;101963.41;4973188;28;20047;-61
2022/05/14 02:02:27;;;;;;;9.27;3.17;;;;;;;11.16;94.20;101961.28;4972020;28;20054;-60
2022/05/14 02:04:55;;;;;;;11.07;3.50;;;;;;;11.15;94.33;101950.84;4969440;28;20055;-60
2022/05/14 02:07:23;;;;;;;11.88;3.40;;;;;;;11.15;94.27;101956.09;4970735;28;20054;-60
2022/05/14 02:09:51;;;;;;;11.07;3.40;;;;;;;11.11;94.56;101951.91;4967996;28;20125;-60
2022/05/14 02:12:19;;;;;;;10.88;3.25;;;;;;;11.13;94.12;101966.72;4969668;28;20398;-61
2022/05/14 02:14:48;;;;;;;14.23;4.30;;;;;;;11.08;94.88;101959.97;4973347;28;20499;-60
2022/05/14 02:17:16;;;;;;;13.10;3.30;;;;;;;11.03;95.27;101959.34;4971707;28;20078;-59
2022/05/14 02:19:45;;;;;;;7.80;2.97;;;;;;;10.98;94.83;101956.97;4968786;28;20046;-60
2022/05/14 02:22:13;;;;;;;13.93;3.63;;;;;;;10.94;94.92;101965.94;4971184;28;20130;-60
2022/05/14 02:24:41;;;;;;;10.50;3.10;;;;;;;10.96;94.10;101961.44;4976472;28;20080;-59
2022/05/14 02:27:09;;;;;;;13.52;4.32;;;;;;;10.94;94.73;101963.28;4975945;28;20051;-59
2022/05/14 02:29:54;;;;;;;8.13;2.90;;;;;;;11.02;93.70;101960.31;4971804;28;20081;-60
2022/05/14 02:32:24;;;;;;;9.55;3.25;;;;;;;10.95;93.66;101959.75;4973143;28;20055;-59
2022/05/14 02:34:54;;;;;;;11.60;2.90;;;;;;;10.94;94.31;101956.25;4972681;28;20122;-60
2022/05/14 02:37:26;;;;;;;8.40;3.22;;;;;;;10.93;94.05;101957.16;4973184;28;20047;-60
2022/05/14 02:39:54;;;;;;;8.02;3.55;;;;;;;10.87;94.13;101959.28;4970331;28;20090;-59
2022/05/14 02:42:23;;;;;;;11.77;3.33;;;;;;;10.84;94.07;101962.91;4974082;28;20367;-60
2022/05/14 02:44:51;;;;;;;7.50;3.22;;;;;;;10.82;94.19;101960.34;4976487;28;20061;-61
2022/05/14 02:47:19;;;;;;;11.77;3.22;;;;;;;10.75;94.20;101964.19;4976736;28;20121;-56
2022/05/14 02:49:47;;;;;;;9.90;3.00;;;;;;;10.71;94.25;101969.66;4972368;28;20165;-55
2022/05/14 02:52:17;;;;;;;9.25;3.17;;;;;;;10.65;94.87;101971.66;4972910;28;20093;-55
2022/05/14 02:54:45;;;;;;;10.30;3.08;;;;;;;10.63;95.00;101973.53;4971442;28;20070;-55
2022/05/14 02:57:13;;;;;;;10.15;2.95;;;;;;;10.59;95.65;101966.72;4972695;28;20051;-55
2022/05/14 02:59:41;;;;;;;12.38;3.05;;;;;;;10.53;95.22;101972.25;4972887;28;20058;-55
2022/05/14 03:02:09;;;;;;;9.43;3.25;;;;;;;10.55;95.11;101980.06;4972729;28;20054;-56
2022/05/14 03:04:40;;;;;;;8.18;3.03;;;;;;;10.49;95.84;101975.94;4975506;28;20053;-54
2022/05/14 03:07:11;;;;;;;11.30;3.35;;;;;;;10.48;95.75;101976.88;4972732;28;20387;-56
2022/05/14 03:09:41;;;;;;;9.35;3.53;;;;;;;10.45;96.02;101980.47;4974657;28;20038;-54
2022/05/14 03:12:12;;;;;;;10.25;3.75;;;;;;;10.39;96.06;101972.03;4991019;28;20059;-53
2022/05/14 03:14:41;;;;;;;11.68;3.25;;;;;;;10.40;96.25;101976.38;4975963;28;20050;-56
2022/05/14 03:17:09;;;;;;;9.32;3.33;;;;;;;10.35;96.42;101973.09;4973107;28;20039;-55
2022/05/14 03:19:37;;;;;;;9.27;2.97;;;;;;;10.39;95.85;101969.41;4973313;28;20062;-56
2022/05/14 03:22:06;;;;;;;9.45;3.40;;;;;;;10.38;95.96;101967.72;4976113;28;20042;-56
2022/05/14 03:24:35;;;;;;;11.25;3.25;;;;;;;10.38;95.78;101962.44;4975927;28;20097;-57
2022/05/14 03:27:06;;;;;;;10.85;3.22;;;;;;;10.30;96.50;101966.25;4972704;28;20047;-56
2022/05/14 03:29:35;;;;;;;9.55;2.80;;;;;;;10.26;96.81;101975.19;4971384;28;20047;-56
2022/05/14 03:32:03;;;;;;;13.50;3.30;;;;;;;10.27;96.66;101974.28;4971035;28;20367;-57
2022/05/14 03:34:32;;;;;;;7.80;3.70;;;;;;;10.26;96.37;101971.72;4972222;28;20133;-56
2022/05/14 03:37:01;;;;;;;7.93;3.40;;;;;;;10.26;96.41;101956.78;4971848;28;20062;-56
2022/05/14 03:39:29;;;;;;;9.50;2.90;;;;;;;10.19;96.99;101958.00;4971039;28;20054;-56
2022/05/14 03:41:57;;;;;;;7.85;2.97;;;;;;;10.18;97.11;101964.16;4970690;28;20042;-55
2022/05/14 03:44:26;;;;;;;10.13;2.75;;;;;;;10.11;97.05;101965.38;4971904;28;20058;-59
2022/05/14 03:46:54;;;;;;;7.82;3.35;;;;;;;10.11;97.09;101973.28;4973664;28;20055;-60
2022/05/14 03:49:23;;;;;;;10.38;2.92;;;;;;;10.07;96.89;101966.44;4972921;28;20050;-60
2022/05/14 03:51:52;;;;;;;8.98;3.08;;;;;;;10.06;97.44;101956.84;4971328;28;20372;-60
2022/05/14 03:54:20;;;;;;;6.90;2.90;;;;;;;10.08;97.40;101968.16;4971600;28;20051;-60
2022/05/14 03:56:48;;;;;;;11.90;3.30;;;;;;;10.04;98.37;101974.47;4975786;28;20546;-60
2022/05/14 03:59:16;;;;;;;8.57;3.10;;;;;;;10.06;97.90;101977.88;4973772;28;20081;-59
2022/05/14 04:01:46;;;;;;;9.43;4.03;;;;;;;10.02;97.46;101978.94;4971946;28;20490;-60
2022/05/14 04:04:14;;;;;;;11.00;3.33;;;;;;;10.04;97.72;101977.94;4971198;28;20043;-59
2022/05/14 04:06:42;;;;;;;11.20;3.58;;;;;;;10.04;97.13;101972.69;4971515;28;20047;-59
2022/05/14 04:09:10;;;;;;;9.00;3.13;;;;;;;10.04;97.57;101969.22;4974873;28;20081;-60
2022/05/14 04:11:38;;;;;;;12.82;3.65;;;;;;;9.98;98.04;101971.19;4975238;28;20054;-61
2022/05/14 04:14:06;;;;;;;10.60;3.30;;;;;;;9.98;97.98;101981.72;4973060;28;20055;-60
2022/05/14 04:16:34;;;;;;;7.55;2.95;;;;;;;9.93;98.44;101972.31;4971482;28;20414;-61
2022/05/14 04:19:04;;;;;;;9.32;3.50;;;;;;;9.92;98.35;101971.44;4974081;28;20046;-60
2022/05/14 04:21:32;;;;;;;10.57;3.33;;;;;;;9.93;98.48;101977.59;4975148;28;20050;-56
2022/05/14 04:24:01;;;;;;;8.95;3.60;;;;;;;9.89;99.10;101976.84;4974557;28;20057;-57
2022/05/14 04:26:29;;;;;;;10.50;3.42;;;;;;;9.91;99.18;101974.16;4974617;28;20063;-56
2022/05/14 04:28:57;;;;;;;11.55;3.80;;;;;;;9.91;99.00;101980.28;4974335;28;20054;-54
2022/05/14 04:31:25;;;;;;;10.38;3.72;;;;;;;9.91;99.14;101985.53;4971337;28;20533;-54
2022/05/14 04:33:53;;;;;;;8.90;3.60;;;;;;;9.96;98.95;101993.19;4970327;28;20498;-60
2022/05/14 04:36:23;;;;;;;11.70;3.70;;;;;;;9.89;99.38;101994.41;4970235;28;20047;-60
2022/05/14 04:38:51;;;;;;;10.15;3.72;;;;;;;9.88;99.96;101993.53;4971139;28;20421;-60
2022/05/14 04:41:19;;;;;;;9.45;3.97;;;;;;;9.88;100.00;101997.94;4968393;28;20187;-59
2022/05/14 04:43:48;;;;;;;11.27;4.20;;;;;;;9.91;100.00;101988.16;4970463;28;20047;-61
2022/05/14 04:46:16;;;;;;;8.55;4.00;;;;;;;9.90;100.00;101996.97;4972818;28;20050;-60
2022/05/14 04:48:44;;;;;;;10.85;4.22;;;;;;;9.88;100.00;102000.56;4970568;28;20039;-60
2022/05/14 04:51:12;;;;;;;12.05;4.15;;;;;;;9.88;100.00;101998.78;4970599;28;20051;-60
2022/05/14 04:53:41;;;;;;;11.30;4.28;;;;;;;9.88;100.00;102003.19;4970673;28;20093;-60
2022/05/14 04:56:10;;;;;;;11.63;4.25;;;;;;;9.94;100.00;102009.03;4971161;28;20050;-60
2022/05/14 04:58:38;;;;;;;10.15;4.28;;;;;;;9.93;100.00;102004.69;4974355;28;20574;-60
2022/05/14 05:01:06;;;;;;;12.45;4.45;;;;;;;10.02;100.00;102003.47;4970528;28;20057;-60
2022/05/14 05:03:33;;;;;;;12.20;4.72;;;;;;;9.98;100.00;102008.00;4970145;28;20638;-60
2022/05/14 05:06:06;;;;;;;11.23;4.78;;;;;;;10.01;100.00;102014.88;4969911;28;20522;-60
2022/05/14 05:08:34;;;;;;;14.93;4.53;;;;;;;10.17;100.00;102020.31;4972490;28;20372;-60
2022/05/14 05:11:04;;;;;;;10.40;4.82;;;;;;;10.19;100.00;102015.84;4973922;28;20085;-59
2022/05/14 05:13:35;;;;;;;9.98;4.40;;;;;;;10.22;100.00;102017.47;4970534;28;20055;-60
2022/05/14 05:16:03;;;;;;;12.10;4.72;;;;;;;10.32;100.00;102022.25;4969979;28;20423;-60
2022/05/14 05:18:31;;;;;;;11.23;4.72;;;;;;;10.35;100.00;102020.44;4970245;28;20043;-59
2022/05/14 05:20:59;;;;;;;13.05;4.60;;;;;;;10.39;100.00;102022.00;4969296;28;20084;-60
2022/05/14 05:23:28;;;;;;;8.77;4.22;;;;;;;10.44;100.00;102017.38;4969794;28;20090;-60
2022/05/14 05:25:58;;;;;;;14.48;5.68;;;;;;;10.49;100.00;102020.66;4967974;28;20057;-59
2022/05/14 05:28:29;;;;;;;13.45;5.05;;;;;;;10.57;100.00;102021.16;4970543;28;20039;-59
2022/05/14 05:30:57;;;;;;;13.45;5.13;;;;;;;10.61;100.00;102021.88;4973345;28;20061;-60
2022/05/14 05:33:26;;;;;;;12.70;5.00;;;;;;;10.67;100.00;102026.00;4971028;28;20101;-60
2022/05/14 05:35:54;;;;;;;10.60;4.90;;;;;;;10.75;100.00;102029.13;4969435;28;20054;-60
2022/05/14 05:38:22;;;;;;;12.52;5.43;;;;;;;10.80;100.00;102019.22;4969811;28;20082;-60
2022/05/14 05:40:52;;;;;;;13.57;5.70;;;;;;;10.87;100.00;102025.91;4967958;28;20109;-59
2022/05/14 05:43:21;;;;;;;13.60;5.40;;;;;;;10.92;100.00;102037.06;4969508;28;20057;-60
2022/05/14 05:45:51;;;;;;;12.82;6.00;;;;;;;10.99;100.00;102038.47;4984592;28;20097;-60
2022/05/14 05:48:19;;;;;;;15.43;5.38;;;;;;;11.08;100.00;102036.31;4969719;28;20051;-60
2022/05/14 05:50:48;;;;;;;12.57;5.65;;;;;;;11.16;100.00;102045.53;4972393;28;20077;-60
2022/05/14 05:53:18;;;;;;;12.63;5.97;;;;;;;11.25;100.00;102057.44;4973215;28;20089;-60
2022/05/14 05:58:32;;;;;;;10.38;5.72;;;;;;;11.49;100.00;102057.13;4969664;28;20053;-59
2022/05/14 06:01:01;;;;;;;13.25;5.82;;;;;;;11.59;99.69;102050.50;4969221;28;20153;-60
2022/05/14 06:03:30;;;;;;;14.13;6.13;;;;;;;11.70;98.58;102051.72;4969531;28;20476;-59
2022/05/14 06:05:58;;;;;;;12.73;6.25;;;;;;;11.80;99.79;102058.25;4969074;28;20083;-60
2022/05/14 06:08:26;;;;;;;16.15;7.55;;;;;;;11.93;99.37;102067.22;4969342;28;20454;-59
2022/05/14 06:10:54;;;;;;;15.48;6.65;;;;;;;12.04;98.58;102063.19;4967482;28;20043;-59
2022/05/14 06:13:22;;;;;;;16.88;6.82;;;;;;;12.14;98.22;102059.16;4969215;28;20415;-61
2022/05/14 06:15:50;;;;;;;18.02;7.28;;;;;;;12.28;97.07;102053.16;4969192;28;20073;-61
2022/05/14 06:18:20;;;;;;;15.07;7.07;;;;;;;12.40;96.88;102059.56;4969349;28;20050;-61
2022/05/14 06:20:48;;;;;;;14.75;6.47;;;;;;;12.50;95.97;102056.34;4969183;28;20050;-59
2022/05/14 06:23:16;;;;;;;19.90;7.05;;;;;;;12.66;95.45;102060.78;4968713;28;20066;-59
2022/05/14 06:25:46;;;;;;;16.25;6.43;;;;;;;12.76;94.89;102063.78;4967750;28;20070;-60
2022/05/14 06:28:14;;;;;;;16.58;6.53;;;;;;;12.80;95.33;102055.63;4968373;28;20042;-59
2022/05/14 06:30:43;;;;;;;12.98;6.90;;;;;;;12.93;94.78;102055.78;4967464;28;20055;-59
2022/05/14 06:33:14;;;;;;;17.45;6.90;;;;;;;13.10;93.61;102064.53;4969208;28;20055;-60
2022/05/14 06:35:45;;;;;;;15.13;6.28;;;;;;;13.25;93.17;102068.97;4968756;28;20398;-59
2022/05/14 06:38:14;;;;;;;15.02;6.65;;;;;;;13.38;91.91;102063.00;4969721;28;20051;-60
2022/05/14 06:40:43;;;;;;;18.17;7.45;;;;;;;13.54;91.60;102063.81;4967115;28;20050;-60
2022/05/14 06:43:11;;;;;;;18.08;7.75;;;;;;;13.67;91.81;102059.53;4972577;28;20097;-60
2022/05/14 06:45:39;;;;;;;23.88;8.13;;;;;;;13.81;91.10;102061.34;4969808;28;20057;-60
2022/05/14 06:48:08;;;;;;;16.42;7.43;;;;;;;13.93;90.06;102070.31;4969443;28;20063;-60
2022/05/14 06:50:41;;;;;;;15.55;7.10;;;;;;;14.09;89.75;102074.69;4968752;28;20767;-60
2022/05/14 06:53:13;;;;;;;14.80;6.47;;;;;;;14.22;88.28;102075.66;4969567;28;20046;-60
2022/05/14 06:55:44;;;;;;;15.40;7.22;;;;;;;14.37;87.51;102074.69;4967177;28;20109;-60
2022/05/14 06:58:16;;;;;;;20.45;6.78;;;;;;;14.55;87.30;102074.50;4968327;28;20066;-60
2022/05/14 07:00:45;;;;;;;18.10;6.53;;;;;;;14.72;86.49;102077.94;4970749;28;20046;-60
2022/05/14 07:08:46;;;;;;;18.67;6.93;;;;;;;15.25;83.24;102068.31;4975419;28;20420;-60
2022/05/14 07:11:14;;;;;;;19.10;6.78;;;;;;;15.41;81.67;102054.06;4976435;28;20423;-61
2022/05/14 07:13:42;;;;;;;18.83;6.72;;;;;;;15.55;82.48;102064.56;4972358;28;20086;-60
2022/05/14 07:16:15;;;;;;;19.25;6.95;;;;;;;15.74;82.15;102071.31;4971135;28;20062;-60
2022/05/14 07:18:44;;;;;;;18.90;7.72;;;;;;;15.92;80.62;102071.88;4975414;28;20066;-60
2022/05/14 07:21:12;;;;;;;19.95;6.90;;;;;;;16.09;79.72;102068.91;4972414;28;20065;-60
2022/05/14 07:23:40;;;;;;;20.55;7.43;;;;;;;16.18;79.57;102070.94;4972619;28;20059;-60
2022/05/14 07:26:10;;;;;;;17.92;6.47;;;;;;;16.30;78.67;102071.88;4970621;28;20051;-60
2022/05/14 07:28:39;;;;;;;18.73;6.43;;;;;;;16.41;78.16;102079.06;4972448;28;20101;-60
2022/05/14 07:31:08;;;;;;;17.35;7.22;;;;;;;16.54;76.81;102079.06;4975475;28;20059;-59
2022/05/14 07:33:38;;;;;;;20.70;8.60;;;;;;;16.58;76.30;102075.25;4975049;28;20061;-60
2022/05/14 07:36:12;;;;;;;16.27;7.70;;;;;;;16.82;75.54;102080.56;4971758;28;20034;-60
2022/05/14 07:38:41;;;;;;;19.88;6.88;;;;;;;16.98;75.33;102071.53;4973923;28;20046;-60
2022/05/14 07:41:12;;;;;;;16.58;7.15;;;;;;;17.21;74.76;102091.13;4975462;28;20507;-60
2022/05/14 07:43:44;;;;;;;20.92;7.35;;;;;;;17.32;73.05;102091.16;4975436;28;20059;-61
2022/05/14 07:46:16;;;;;;;17.97;7.10;;;;;;;17.42;72.63;102090.50;4974523;28;20066;-60
2022/05/14 07:48:45;;;;;;;;;;;;;;;17.55;73.31;102080.63;4971725;28;20581;-59
2022/05/14 07:51:13;;;;;;;18.10;7.82;;;;;;;17.74;72.48;102090.72;4971476;28;19957;-59
2022/05/14 07:53:42;;;;;;;16.65;6.97;;;;;;;17.88;70.81;102089.66;4971659;28;20097;-59
2022/05/14 07:56:11;;;;;;;16.52;6.85;;;;;;;18.06;69.63;102093.63;4969544;28;20043;-60
2022/05/14 07:58:42;;;;;;;16.67;6.85;;;;;;;18.24;67.95;102087.78;4972001;28;20494;-60
2022/05/14 08:01:10;;;;;;;17.75;6.90;;;;;;;18.41;68.96;102095.31;4973352;28;20078;-59
2022/05/14 08:03:38;;;;;;;16.20;6.88;;;;;;;18.63;67.73;102096.28;4972941;28;20058;-60
2022/05/14 08:06:09;;;;;;;17.55;6.45;;;;;;;18.89;68.04;102096.03;4971563;28;20097;-59
2022/05/14 08:08:38;;;;;;;17.33;6.95;;;;;;;18.96;66.47;102099.06;4971963;28;20074;-59
2022/05/14 08:11:06;;;;;;;16.60;6.60;;;;;;;19.09;65.94;102099.75;4974919;28;20721;-59
2022/05/14 08:13:35;;;;;;;17.58;6.70;;;;;;;19.12;65.49;102094.16;4973458;28;20133;-59
2022/05/14 08:16:05;;;;;;;15.98;7.05;;;;;;;19.30;65.48;102094.44;4970865;28;20090;-58
2022/05/14 08:18:33;;;;;;;16.65;6.28;;;;;;;19.64;64.04;102098.81;4972543;28;20212;-61
2022/05/14 08:24:29;;;;;;;18.38;6.63;;;;;;;19.84;64.49;102090.00;4971270;28;20058;-61
2022/05/14 08:26:36;;;;;;;19.20;6.38;;;;;;;19.84;60.38;102094.50;4973494;28;20051;-58
2022/05/14 08:29:06;;;;;;;20.15;6.28;;;;;;;20.06;61.01;102089.00;4972096;28;20082;-59
2022/05/14 08:31:34;;;;;;;15.00;5.88;;;;;;;20.32;60.11;102091.22;4971528;28;20058;-60
2022/05/14 08:34:03;;;;;;;19.45;6.65;;;;;;;20.23;58.79;102095.56;4971876;28;20113;-60
2022/05/14 08:36:31;;;;;;;13.13;5.30;;;;;;;20.51;58.50;102097.63;4970601;28;20070;-60
2022/05/14 08:38:59;;;;;;;16.45;5.88;;;;;;;20.79;57.61;102093.38;4971068;28;20050;-60
2022/05/14 08:41:27;;;;;;;18.73;5.75;;;;;;;20.97;56.25;102096.25;4971960;28;20436;-62
2022/05/14 08:44:00;;;;;;;17.25;5.93;;;;;;;21.21;57.34;102086.97;4974361;28;20399;-59
2022/05/14 08:46:31;;;;;;;16.58;5.68;;;;;;;20.84;54.02;102093.81;4974415;28;20101;-60
2022/05/14 08:49:06;;;;;;;16.38;5.03;;;;;;;20.98;53.75;102086.38;4974485;28;20486;-59
2022/05/14 08:51:37;;;;;;;15.15;4.38;;;;;;;20.94;54.31;102083.13;4972276;28;20050;-60
2022/05/14 08:54:06;;;;;;;13.20;4.95;;;;;;;21.27;53.60;102081.91;4971067;28;20124;-59
2022/05/14 08:56:42;;;;;;;18.15;6.35;;;;;;;21.38;52.46;102078.25;4973441;28;20154;-60
2022/05/14 08:59:30;;;;;;;14.75;5.55;;;;;;;21.58;53.10;102080.94;4970052;28;20113;-60
2022/05/14 09:02:05;;;;;;;20.02;5.88;;;;;;;21.72;52.53;102069.78;4970239;28;20054;-59
2022/05/14 09:04:33;;;;;;;20.25;5.97;;;;;;;21.96;51.83;102076.50;4970253;28;20321;-59
2022/05/14 09:07:02;;;;;;;16.02;5.22;;;;;;;21.98;50.57;102082.56;4973636;28;20045;-59
2022/05/14 09:09:31;;;;;;;15.40;4.28;;;;;;;22.16;47.68;102081.81;4971118;28;20070;-61
2022/05/14 09:12:00;;;;;;;16.42;4.03;;;;;;;22.28;46.16;102077.94;4985052;28;20158;-60
2022/05/14 09:14:31;;;;;;;15.77;4.13;;;;;;;22.40;46.67;102076.78;4970418;28;20051;-60
2022/05/14 09:17:06;;;;;;;14.23;4.18;;;;;;;22.62;47.02;102082.75;4970997;28;20058;-60
2022/05/14 09:19:38;;;;;;;16.23;3.70;;;;;;;22.82;46.74;102083.47;4974080;28;20121;-60
2022/05/14 09:22:14;;;;;;;18.23;4.97;;;;;;;22.56;46.51;102080.66;4973239;28;20046;-60
2022/05/14 09:24:46;;;;;;;15.00;4.95;;;;;;;22.43;48.09;102078.34;4970154;28;20054;-60
2022/05/14 09:27:23;;;;;;;16.80;4.55;;;;;;;22.57;47.27;102082.34;4970442;28;20106;-60
2022/05/14 09:29:55;;;;;;;14.77;4.93;;;;;;;22.26;47.78;102088.81;4970971;28;20046;-60
2022/05/14 09:32:35;;;;;;;15.50;5.88;;;;;;;22.50;49.38;102083.94;4970732;28;20062;-60
2022/05/14 09:35:09;;;;;;;15.82;6.60;;;;;;;22.63;49.81;102079.06;4969637;28;20062;-61
2022/05/14 09:37:57;;;;;;;17.55;5.38;;;;;;;23.21;49.89;102083.22;4969749;28;20105;-61
2022/05/14 09:40:28;;;;;;;15.10;5.18;;;;;;;23.42;47.44;102074.00;4972742;28;20085;-60
2022/05/14 09:43:09;;;;;;;14.90;4.65;;;;;;;23.49;46.50;102079.59;4969420;28;20125;-61
2022/05/14 09:45:40;;;;;;;14.75;4.43;;;;;;;23.75;45.85;102085.84;4969731;28;20574;-60
2022/05/14 09:48:16;;;;;;;13.77;4.15;;;;;;;23.96;43.58;102081.97;4970406;28;20058;-60
2022/05/14 09:50:48;;;;;;;17.83;4.40;;;;;;;23.73;43.71;102074.41;4970044;28;20053;-60
2022/05/14 09:53:27;;;;;;;14.05;4.60;;;;;;;24.06;43.75;102077.31;4970313;28;20502;-59
2022/05/14 09:56:28;;;;;;;14.85;3.58;;;;;;;24.27;41.33;102066.19;4969167;28;20077;-60
2022/05/14 09:59:08;;;;;;;10.95;3.30;;;;;;;24.64;41.42;102069.56;4987417;28;20055;-60
2022/05/14 10:01:44;;;;;;;12.70;3.65;;;;;;;24.96;42.42;102079.56;4972403;28;20133;-61
2022/05/14 10:04:35;;;;;;;12.57;4.22;;;;;;;25.06;41.00;102073.16;4970079;28;20577;-60
2022/05/14 10:07:08;;;;;;;17.95;5.00;;;;;;;25.35;41.80;102072.72;4970938;28;20094;-59
2022/05/14 10:09:39;;;;;;;;;;;;;;;25.66;41.82;102074.72;4972417;28;20509;-62
2022/05/14 10:12:15;;;;;;;16.70;4.68;;;;;;;25.74;40.36;102069.31;4970475;28;20358;-59
2022/05/14 10:15:00;;;;;;;15.50;4.35;;;;;;;25.75;39.00;102070.97;4971869;28;20050;-59
2022/05/14 10:17:41;;;;;;;11.55;3.92;;;;;;;25.85;38.97;102073.50;4972970;28;20038;-59
2022/05/14 10:20:25;;;;;;;15.73;3.92;;;;;;;26.02;40.39;102074.31;4972706;28;20109;-60
2022/05/14 10:28:59;;;;;;;10.43;3.50;;;;;;;26.44;38.57;102075.84;4947224;28;20445;-59
2022/05/14 10:31:34;;;;;;;12.10;3.20;;;;;;;26.68;35.22;102078.59;4969859;28;20406;-59
2022/05/14 10:34:15;;;;;;;12.65;3.40;;;;;;;26.89;36.35;102070.75;4971967;28;20063;-59
2022/05/14 10:36:48;;;;;;;12.70;4.28;;;;;;;26.86;36.03;102063.03;4972682;28;20406;-60
2022/05/14 10:39:26;;;;;;;11.95;4.43;;;;;;;27.24;35.96;102070.31;4971890;28;20074;-59
2022/05/14 10:42:00;;;;;;;11.40;3.60;;;;;;;27.21;35.53;102078.78;4969055;28;20057;-59
2022/05/14 10:44:39;;;;;;;15.27;4.15;;;;;;;27.14;35.76;102075.97;4975643;28;20109;-60
2022/05/14 10:47:10;;;;;;;14.15;4.25;;;;;;;26.87;35.58;102074.66;4976481;28;20161;-58
2022/05/14 10:49:45;;;;;;;17.48;4.95;;;;;;;27.12;35.28;102073.44;4976357;28;20590;-60
2022/05/14 10:52:17;;;;;;;15.70;4.30;;;;;;;26.79;35.76;102071.00;4976337;28;20047;-60
2022/05/14 10:54:46;;;;;;;12.65;4.00;;;;;;;27.22;35.99;102075.91;4976549;28;20063;-61
2022/05/14 10:57:38;;;;;;;12.55;4.07;;;;;;;27.14;34.49;102074.09;4976031;28;20058;-61
2022/05/14 11:00:21;;;;;;;11.07;3.67;;;;;;;26.85;34.67;102069.44;4975849;28;20046;-61
2022/05/14 11:02:56;;;;;;;12.65;3.38;;;;;;;27.01;34.86;102068.50;4976033;28;20135;-60
2022/05/14 11:05:35;;;;;;;11.80;3.53;;;;;;;26.91;36.14;102065.16;4973891;28;20049;-59
2022/05/14 11:08:14;;;;;;;22.20;4.60;;;;;;;26.90;35.34;102071.56;4973646;28;20514;-58
2022/05/14 11:10:43;;;;;;;14.95;4.30;;;;;;;26.98;34.03;102072.38;4972519;28;20053;-58
2022/05/14 11:13:15;;;;;;;10.40;3.33;;;;;;;27.22;35.91;102066.97;4972736;28;20050;-61
2022/05/14 11:15:44;;;;;;;13.20;4.15;;;;;;;27.25;34.05;102074.69;4971845;28;20059;-60
2022/05/14 11:18:15;;;;;;;13.90;4.03;;;;;;;27.10;34.81;102072.78;4972183;28;20577;-61
2022/05/14 11:20:55;;;;;;;13.82;4.00;;;;;;;26.85;34.91;102065.91;4972106;28;20051;-60
2022/05/14 11:23:25;;;;;;;12.13;3.30;;;;;;;27.24;36.02;102062.22;4972328;28;20067;-60
2022/05/14 11:26:12;;;;;;;12.20;3.40;;;;;;;26.89;34.31;102068.06;4970382;28;20054;-60
2022/05/14 11:28:41;;;;;;;17.63;3.83;;;;;;;26.79;34.38;102064.72;4975732;28;20050;-59
2022/05/14 11:31:15;;;;;;;13.57;4.15;;;;;;;26.45;33.97;102065.91;4975640;28;20102;-59
2022/05/14 11:33:44;;;;;;;11.32;3.45;;;;;;;26.47;34.52;102064.72;4975768;28;20141;-59
2022/05/14 11:36:23;;;;;;;12.95;3.83;;;;;;;26.66;33.58;102054.50;4973570;28;20609;-59
2022/05/14 11:39:21;;;;;;;17.38;3.53;;;;;;;26.96;35.41;102062.78;4971701;28;20062;-60
2022/05/14 11:41:51;;;;;;;12.38;3.67;;;;;;;27.26;34.61;102060.19;4969959;28;20055;-60
2022/05/14 11:44:35;;;;;;;17.27;4.38;;;;;;;27.00;33.67;102058.69;4973796;28;20046;-60
2022/05/14 11:47:09;;;;;;;11.55;3.80;;;;;;;27.41;33.49;102061.09;4972487;28;20039;-60
2022/05/14 11:49:42;;;;;;;14.77;3.85;;;;;;;27.65;32.47;102064.56;4971316;28;20431;-61
2022/05/14 11:52:17;;;;;;;10.93;3.20;;;;;;;27.09;33.46;102057.63;4971977;28;20151;-60
2022/05/14 11:54:54;;;;;;;19.52;4.40;;;;;;;26.96;33.68;102066.31;4969512;28;20150;-61
2022/05/14 11:57:27;;;;;;;12.27;3.83;;;;;;;27.17;33.33;102067.50;4971409;28;20054;-60
2022/05/14 12:00:06;;;;;;;14.90;3.60;;;;;;;27.41;33.51;102071.06;4974669;28;20074;-60